Time;durP1;ratioP1;P1;durP2;ratioP2;P2;SDS_P1;SDS_P2;PMS_P1;PMS_P2;Temp;Humidity;BMP_temperature;BMP_pressure;BME280_temperature;BME280_humidity;BME280_pressure;Samples;Min_cycle;Max_cycle;Signal;HPM_P1;HPM_P2
2023/02/15 00:21:04;;;;;;;;;;;;;;;;;;;;;
2023/02/15 03:30:31;;;;;;;68.67;34.03;;;6.40;99.90;;;;;;4491489;23;15085703;-95
2023/02/15 03:33:23;;;;;;;71.63;32.73;;;6.00;99.90;;;;;;5042428;23;20246;-95
2023/02/15 03:50:10;;;;;;;;;;;;;;;;;;;;;
2023/02/15 04:03:23;;;;;;;81.50;35.63;;;5.50;99.90;;;;;;4963785;23;20144;-95
2023/02/15 04:05:44;;;;;;;79.27;33.53;;;5.50;99.90;;;;;;4939019;23;20163;-95
2023/02/15 06:22:14;;;;;;;;;;;;;;;;;;;;;
2023/02/15 08:06:14;;;;;;;;;;;;;;;;;;;;;
2023/02/15 17:57:40;;;;;;;;;;;;;;;;;;;;;
2023/02/15 18:11:48;;;;;;;63.72;31.42;;;10.10;99.90;;;;;;5102272;23;20192;-94
2023/02/15 18:14:00;;;;;;;61.42;31.80;;;10.00;99.90;;;;;;5122600;23;20156;-95
2023/02/15 18:16:03;;;;;;;59.70;30.92;;;9.90;99.90;;;;;;5122877;23;20230;-94
2023/02/15 18:18:04;;;;;;;59.80;30.50;;;10.10;99.90;;;;;;5124827;23;20152;-96
2023/02/15 18:20:19;;;;;;;55.75;30.75;;;10.20;99.90;;;;;;5098292;23;20572;-96
2023/02/15 18:22:30;;;;;;;56.97;29.88;;;10.40;99.90;;;;;;5124771;23;20152;-95
2023/02/15 18:24:35;;;;;;;55.05;29.60;;;10.40;99.90;;;;;;5125037;23;20487;-94
2023/02/15 18:26:51;;;;;;;56.95;29.58;;;10.40;99.90;;;;;;5099643;23;20133;-94
2023/02/15 18:29:12;;;;;;;64.45;31.13;;;10.10;99.90;;;;;;5099049;23;20211;-95
2023/02/15 18:31:14;;;;;;;56.30;29.25;;;9.90;99.90;;;;;;5099446;23;20169;-95
2023/02/15 18:33:35;;;;;;;59.97;29.23;;;9.90;99.90;;;;;;5099042;23;20149;-96
2023/02/15 18:35:54;;;;;;;52.28;28.77;;;10.10;99.90;;;;;;5124698;23;20156;-95
2023/02/15 18:38:21;;;;;;;;;;;;;;;;;;;;;
2023/02/15 18:40:32;;;;;;;59.17;29.42;;;10.00;99.90;;;;;;5121948;23;20167;-96
2023/02/15 18:42:35;;;;;;;56.03;29.35;;;10.00;99.90;;;;;;5121734;23;20156;-95
2023/02/15 18:44:39;;;;;;;63.20;31.30;;;9.80;99.90;;;;;;5098892;23;20161;-95
2023/02/15 18:46:42;;;;;;;59.67;29.87;;;9.90;99.90;;;;;;5122377;23;20144;-95
2023/02/15 18:48:51;;;;;;;55.15;30.50;;;9.90;99.90;;;;;;5097295;23;20259;-94
2023/02/15 18:51:33;;;;;;;60.80;31.13;;;9.90;99.90;;;;;;5121660;23;20191;-94
2023/02/15 18:53:34;;;;;;;55.03;29.80;;;9.90;99.90;;;;;;5119752;23;20152;-95
2023/02/15 18:55:48;;;;;;;66.25;31.10;;;9.70;99.90;;;;;;5124173;23;20159;-95
2023/02/15 18:58:00;;;;;;;58.83;32.92;;;9.60;99.90;;;;;;5099207;23;20157;-96
2023/02/15 19:00:27;;;;;;;61.93;31.83;;;9.60;99.90;;;;;;5096771;23;20622;-95
2023/02/15 19:02:38;;;;;;;56.43;30.97;;;9.60;99.90;;;;;;5123575;23;20152;-94
2023/02/15 19:05:26;;;;;;;58.20;31.10;;;9.50;99.90;;;;;;5097516;23;20172;-96
2023/02/15 19:07:31;;;;;;;63.20;31.97;;;9.50;99.90;;;;;;5122143;23;20144;-95
2023/02/15 19:09:35;;;;;;;60.20;31.37;;;9.60;99.90;;;;;;5129283;23;20224;-95
2023/02/15 19:11:36;;;;;;;62.50;32.47;;;9.50;99.90;;;;;;5114386;23;20212;-96
2023/02/15 19:13:47;;;;;;;;;;;;;;;;;;;;;
2023/02/15 19:15:58;;;;;;;63.90;33.63;;;9.40;99.90;;;;;;5121970;23;20183;-95
2023/02/15 19:18:05;;;;;;;69.90;34.20;;;9.40;99.90;;;;;;5098049;23;20156;-95
2023/02/15 19:20:37;;;;;;;64.77;33.63;;;9.50;99.90;;;;;;5098990;23;20734;-95
2023/02/15 19:22:40;;;;;;;68.27;34.27;;;9.20;99.90;;;;;;5119084;23;20218;-95
2023/02/15 19:24:46;;;;;;;67.47;33.65;;;9.20;99.90;;;;;;5097961;23;20165;-94
2023/02/15 19:29:09;;;;;;;64.20;34.27;;;9.20;99.90;;;;;;5161443;22;20214;-95
2023/02/15 19:31:11;;;;;;;74.23;35.13;;;9.20;99.90;;;;;;5096927;23;20196;-94
2023/02/15 19:33:18;;;;;;;64.13;35.33;;;9.20;99.90;;;;;;5096639;23;20180;-94
2023/02/15 19:35:22;;;;;;;79.93;34.87;;;9.30;99.90;;;;;;5095743;23;20228;-94
2023/02/15 19:37:31;;;;;;;64.87;33.77;;;9.30;99.90;;;;;;5095410;23;20161;-94
2023/02/15 19:39:41;;;;;;;68.93;34.97;;;9.10;99.90;;;;;;5119765;23;20172;-95
2023/02/15 19:41:46;;;;;;;71.23;34.90;;;8.90;99.90;;;;;;5096101;23;20160;-93
2023/02/15 19:43:52;;;;;;;73.97;34.80;;;8.70;99.90;;;;;;5120384;23;20206;-95
2023/02/15 19:45:53;;;;;;;69.90;35.00;;;8.70;99.90;;;;;;5095354;23;20153;-95
2023/02/15 19:47:54;;;;;;;66.80;33.97;;;8.60;99.90;;;;;;5120563;23;20148;-94
2023/02/15 19:50:00;;;;;;;67.80;34.60;;;8.70;99.90;;;;;;5095410;23;20173;-94
2023/02/15 19:52:24;;;;;;;61.63;33.60;;;8.80;99.90;;;;;;5119765;23;20175;-94
2023/02/15 19:54:29;;;;;;;72.47;34.47;;;8.90;99.90;;;;;;5095474;23;20195;-95
2023/02/15 19:56:30;;;;;;;68.53;34.97;;;8.90;99.90;;;;;;5095192;23;20167;-95
2023/02/15 19:58:32;;;;;;;67.97;34.20;;;9.00;99.90;;;;;;5095171;23;20149;-95
2023/02/15 20:00:33;;;;;;;64.33;34.30;;;9.00;99.90;;;;;;5095597;23;20235;-95
2023/02/15 20:02:36;;;;;;;79.37;36.10;;;9.00;99.90;;;;;;5095872;23;20152;-96
2023/02/15 20:04:39;;;;;;;71.33;35.50;;;8.90;99.90;;;;;;5119798;23;20184;-94
2023/02/15 20:06:43;;;;;;;73.80;37.80;;;9.00;99.90;;;;;;5096541;23;20192;-95
2023/02/15 20:08:44;;;;;;;74.97;36.50;;;8.90;99.90;;;;;;5119956;23;20168;-94
2023/02/15 20:10:45;;;;;;;70.13;35.23;;;8.80;99.90;;;;;;5095601;23;20220;-94
2023/02/15 20:12:46;;;;;;;73.27;35.47;;;8.70;99.90;;;;;;5120418;23;20275;-93
2023/02/15 20:14:47;;;;;;;61.53;33.20;;;8.70;99.90;;;;;;5094806;23;20677;-94
2023/02/15 20:16:49;;;;;;;71.97;33.50;;;8.60;99.90;;;;;;5095278;23;20153;-93
2023/02/15 20:18:51;;;;;;;68.07;34.87;;;8.40;99.90;;;;;;5122675;23;20168;-94
2023/02/15 20:20:53;;;;;;;61.67;33.10;;;8.20;99.90;;;;;;5098217;23;20181;-96
2023/02/15 20:22:54;;;;;;;63.57;33.50;;;8.10;99.90;;;;;;5122424;23;20152;-95
2023/02/15 20:24:55;;;;;;;60.80;32.97;;;8.30;99.90;;;;;;5121143;23;20155;-94
2023/02/15 20:26:56;;;;;;;65.20;33.97;;;8.10;99.90;;;;;;5097474;23;20587;-95
2023/02/15 20:28:58;;;;;;;61.43;33.27;;;8.00;99.90;;;;;;5121101;23;20180;-94
2023/02/15 20:31:01;;;;;;;68.43;34.40;;;8.20;99.90;;;;;;5122118;23;20250;-96
2023/02/15 20:33:02;;;;;;;65.67;32.83;;;8.30;99.90;;;;;;5121672;23;20152;-96
2023/02/15 20:35:04;;;;;;;60.93;32.67;;;8.10;99.90;;;;;;5122143;23;20182;-95
2023/02/15 20:37:27;;;;;;;63.83;33.07;;;8.00;99.90;;;;;;5122075;23;20148;-94
2023/02/15 20:39:28;;;;;;;66.87;32.13;;;8.10;99.90;;;;;;5121899;23;20176;-94
2023/02/15 20:41:35;;;;;;;60.40;33.00;;;7.90;99.90;;;;;;5124371;23;20201;-95
2023/02/15 20:43:36;;;;;;;63.70;32.13;;;7.90;99.90;;;;;;5121699;23;20596;-95
2023/02/15 20:45:37;;;;;;;63.53;33.27;;;7.90;99.90;;;;;;5121746;23;20152;-95
2023/02/15 20:47:37;;;;;;;70.43;33.50;;;8.20;99.90;;;;;;5123351;23;20230;-93
2023/02/15 20:49:40;;;;;;;68.00;33.27;;;8.30;99.90;;;;;;5122481;23;20251;-94
2023/02/15 20:51:43;;;;;;;66.47;34.53;;;8.30;99.90;;;;;;5122208;23;20231;-95
2023/02/15 20:53:46;;;;;;;61.37;33.07;;;8.20;99.90;;;;;;5121297;23;20154;-95
2023/02/15 20:55:47;;;;;;;64.10;34.23;;;8.10;99.90;;;;;;5120452;23;20136;-94
2023/02/15 20:57:48;;;;;;;66.70;34.83;;;8.10;99.90;;;;;;5121332;23;20219;-96
2023/02/15 20:59:49;;;;;;;72.33;35.40;;;8.10;99.90;;;;;;5122000;23;20176;-95
2023/02/15 21:01:54;;;;;;;70.60;34.63;;;8.00;99.90;;;;;;5122046;23;20148;-93
2023/02/15 21:04:00;;;;;;;65.50;34.13;;;8.10;99.90;;;;;;5125382;23;20155;-95
2023/02/15 21:06:11;;;;;;;66.70;33.97;;;8.20;99.90;;;;;;5122151;23;20156;-96
2023/02/15 21:08:25;;;;;;;64.50;33.33;;;8.20;99.90;;;;;;5125356;23;20188;-96
2023/02/15 21:10:36;;;;;;;65.83;33.40;;;8.20;99.90;;;;;;5153749;23;20270;-96
2023/02/15 21:12:49;;;;;;;65.00;33.53;;;8.20;99.90;;;;;;5125418;23;20179;-95
2023/02/15 21:14:50;;;;;;;69.23;34.03;;;8.30;99.90;;;;;;5129537;23;20139;-96
2023/02/15 21:16:52;;;;;;;68.20;33.47;;;8.40;99.90;;;;;;5150417;23;20147;-94
2023/02/15 21:18:53;;;;;;;68.53;34.07;;;8.20;99.90;;;;;;5151092;23;20282;-95
2023/02/15 21:20:57;;;;;;;64.60;33.70;;;7.90;99.90;;;;;;5126080;23;20155;-94
2023/02/15 21:23:04;;;;;;;60.27;32.50;;;7.70;99.90;;;;;;5128293;23;20132;-95
2023/02/15 21:25:09;;;;;;;64.67;33.50;;;7.70;99.90;;;;;;5141380;23;20164;-94
2023/02/15 21:27:12;;;;;;;66.70;33.23;;;7.60;99.90;;;;;;5145996;23;20156;-96
2023/02/15 21:29:21;;;;;;;63.90;33.77;;;7.80;99.90;;;;;;5123751;23;20214;-94
2023/02/15 21:31:24;;;;;;;68.53;33.87;;;7.70;99.90;;;;;;5121865;23;20588;-95
2023/02/15 21:33:26;;;;;;;60.47;32.43;;;7.70;99.90;;;;;;5126782;23;20152;-94
2023/02/15 21:35:28;;;;;;;65.80;34.50;;;7.70;99.90;;;;;;5126233;23;20172;-95
2023/02/15 21:37:37;;;;;;;69.47;34.17;;;7.90;99.90;;;;;;5122162;23;20148;-96
2023/02/15 21:39:40;;;;;;;66.27;32.53;;;7.90;99.90;;;;;;5123169;23;20175;-95
2023/02/15 21:49:26;;;;;;;64.20;32.43;;;7.50;99.90;;;;;;5147229;23;20182;-93
2023/02/15 21:54:00;;;;;;;67.73;34.00;;;7.50;99.90;;;;;;5147665;23;20206;-93
2023/02/15 21:56:17;;;;;;;73.03;34.23;;;7.50;99.90;;;;;;5121254;23;20162;-94
2023/02/15 21:58:27;;;;;;;62.77;32.87;;;7.40;99.90;;;;;;5127076;23;20211;-94
2023/02/15 22:00:32;;;;;;;55.20;32.20;;;7.30;99.90;;;;;;5123534;23;20155;-96
2023/02/15 22:02:42;;;;;;;63.73;33.47;;;7.40;99.90;;;;;;5144621;23;20247;-95
2023/02/15 22:04:43;;;;;;;68.97;34.30;;;7.40;99.90;;;;;;5122588;23;20156;-94
2023/02/15 22:06:44;;;;;;;71.83;34.13;;;7.40;99.90;;;;;;5122899;23;20148;-95
2023/02/15 22:08:58;;;;;;;66.67;32.40;;;7.40;99.90;;;;;;5149954;23;20199;-94
2023/02/15 22:10:59;;;;;;;66.07;33.63;;;7.30;99.90;;;;;;5122836;23;20515;-95
2023/02/15 22:13:25;;;;;;;63.97;34.13;;;7.20;99.90;;;;;;5124394;23;20156;-94
2023/02/15 22:15:54;;;;;;;73.40;35.17;;;7.40;99.90;;;;;;5125061;23;20160;-96
2023/02/15 22:18:31;;;;;;;67.70;33.73;;;7.60;99.90;;;;;;5147245;23;20207;-94
2023/02/15 22:20:58;;;;;;;67.57;32.90;;;7.70;99.90;;;;;;5149910;23;20206;-95
2023/02/15 22:23:22;;;;;;;71.07;35.43;;;7.80;99.90;;;;;;5126328;23;20160;-95
2023/02/15 22:26:01;;;;;;;61.77;32.43;;;7.90;99.90;;;;;;5150117;23;20171;-94
2023/02/15 22:28:17;;;;;;;61.97;33.10;;;7.70;99.90;;;;;;5127173;23;20170;-93
2023/02/15 22:30:26;;;;;;;62.43;32.50;;;7.60;99.90;;;;;;5123730;23;20234;-95
2023/02/15 22:32:33;;;;;;;60.83;33.13;;;7.70;99.90;;;;;;5123537;23;20219;-94
2023/02/15 22:35:00;;;;;;;63.30;32.67;;;7.50;99.90;;;;;;5127615;23;20151;-94
2023/02/15 22:37:03;;;;;;;69.30;33.83;;;7.60;99.90;;;;;;5149286;23;20156;-94
2023/02/15 22:39:03;;;;;;;68.60;33.20;;;7.40;99.90;;;;;;5124166;23;20168;-95
2023/02/15 22:41:04;;;;;;;68.10;33.80;;;7.40;99.90;;;;;;5126053;23;20187;-96
2023/02/15 22:43:14;;;;;;;60.10;32.10;;;7.30;99.90;;;;;;5124982;23;20148;-95
2023/02/15 22:45:23;;;;;;;61.10;32.10;;;7.40;99.90;;;;;;5124976;23;20179;-95
2023/02/15 22:47:34;;;;;;;75.17;34.83;;;7.40;99.90;;;;;;5127736;23;20160;-94
2023/02/15 22:49:42;;;;;;;64.97;33.47;;;7.30;99.90;;;;;;5125278;23;20250;-94
2023/02/15 22:51:54;;;;;;;67.17;33.17;;;7.10;99.90;;;;;;5125551;23;20191;-94
2023/02/15 22:53:55;;;;;;;65.13;33.43;;;7.20;99.90;;;;;;5126404;23;20160;-94
2023/02/15 22:56:06;;;;;;;55.93;30.70;;;7.20;99.90;;;;;;5124100;23;20603;-94
2023/02/15 22:58:41;;;;;;;68.17;34.63;;;7.20;99.90;;;;;;5124893;23;20187;-96
2023/02/15 23:00:42;;;;;;;63.03;34.17;;;7.30;99.90;;;;;;5135304;23;20211;-96
2023/02/15 23:02:44;;;;;;;63.33;33.67;;;7.40;99.90;;;;;;5123654;23;20191;-94
2023/02/15 23:05:26;;;;;;;61.27;33.37;;;7.50;99.90;;;;;;5125045;23;20157;-94
2023/02/15 23:07:27;;;;;;;68.53;35.07;;;7.50;99.90;;;;;;5152739;23;20183;-93
2023/02/15 23:09:46;;;;;;;68.83;35.80;;;7.60;99.90;;;;;;5126506;23;20164;-95
2023/02/15 23:15:35;;;;;;;68.23;34.87;;;7.70;99.90;;;;;;5150790;23;20156;-94
2023/02/15 23:18:06;;;;;;;68.60;34.00;;;7.70;99.90;;;;;;5128718;23;20156;-93
2023/02/15 23:20:26;;;;;;;62.63;34.60;;;7.70;99.90;;;;;;5128074;23;20184;-94
2023/02/15 23:22:50;;;;;;;68.73;34.10;;;7.70;99.90;;;;;;5130732;23;20133;-95
2023/02/15 23:24:56;;;;;;;68.63;34.17;;;7.70;99.90;;;;;;5125872;23;20194;-93
2023/02/15 23:29:50;;;;;;;69.77;35.67;;;7.50;99.90;;;;;;5154166;23;20269;-93
2023/02/15 23:31:56;;;;;;;66.87;36.57;;;7.40;99.90;;;;;;5130973;23;20223;-94
2023/02/15 23:34:42;;;;;;;;;;;;;;;;;;;;;
2023/02/15 23:36:56;;;;;;;71.53;34.27;;;7.40;99.90;;;;;;5149829;23;20179;-94
2023/02/15 23:41:44;;;;;;;71.10;36.00;;;7.40;99.90;;;;;;5150562;23;20173;-94
2023/02/15 23:44:08;;;;;;;71.03;36.10;;;7.30;99.90;;;;;;5152118;23;20160;-94
2023/02/15 23:46:41;;;;;;;69.07;36.00;;;7.40;99.90;;;;;;5129079;23;20139;-95
2023/02/15 23:48:51;;;;;;;72.00;34.83;;;7.10;99.90;;;;;;5136189;23;20159;-96
2023/02/15 23:50:55;;;;;;;68.43;35.00;;;7.00;99.90;;;;;;5127126;23;20242;-94
2023/02/15 23:52:59;;;;;;;67.63;36.17;;;7.20;99.90;;;;;;5124080;23;20550;-94
2023/02/15 23:55:12;;;;;;;63.73;34.47;;;7.10;99.90;;;;;;5147832;23;20246;-96
2023/02/15 23:57:13;;;;;;;70.27;35.30;;;7.00;99.90;;;;;;5125845;23;20149;-95
2023/02/15 23:59:20;;;;;;;66.50;34.67;;;7.00;99.90;;;;;;5152969;23;20179;-95
